Time;durP1;ratioP1;P1;durP2;ratioP2;P2;SDS_P1;SDS_P2;PMS_P1;PMS_P2;Temp;Humidity;BMP_temperature;BMP_pressure;BME280_temperature;BME280_humidity;BME280_pressure;Samples;Min_cycle;Max_cycle;Signal;HPM_P1;HPM_P2
2023/03/05 00:00:14;;;;;;;11.50;2.80;;;;;;;-3.29;57.14;99187.20;105830;1251;59122;-76
2023/03/05 00:03:22;;;;;;;9.30;2.50;;;;;;;-3.35;57.25;99180.46;106060;1256;61838;-74
2023/03/05 00:06:10;;;;;;;8.60;2.60;;;;;;;-3.39;57.28;99175.24;106036;1251;72280;-76
2023/03/05 00:08:59;;;;;;;11.40;2.60;;;;;;;-3.43;57.30;99176.94;105068;1257;1003341;-76
2023/03/05 00:11:47;;;;;;;9.60;2.70;;;;;;;-3.47;57.79;99178.10;105751;1251;73459;-74
2023/03/05 00:14:35;;;;;;;10.80;3.10;;;;;;;-3.55;58.16;99166.06;105088;1256;1003643;-74
2023/03/05 00:17:23;;;;;;;12.10;2.90;;;;;;;-3.54;58.28;99171.08;106014;1255;59210;-76
2023/03/05 00:20:12;;;;;;;9.50;3.20;;;;;;;-3.56;58.50;99176.50;105839;1251;69690;-75
2023/03/05 00:23:01;;;;;;;10.40;2.80;;;;;;;-3.56;59.21;99190.39;105831;1254;66663;-76
2023/03/05 00:25:50;;;;;;;11.20;2.70;;;;;;;-3.56;59.61;99186.05;106089;1251;73410;-77
2023/03/05 00:28:38;;;;;;;9.30;2.60;;;;;;;-3.52;59.60;99182.10;105696;1251;59324;-76
2023/03/05 00:31:29;;;;;;;9.50;1.80;;;;;;;-3.45;59.95;99181.66;106033;1251;59240;-76
2023/03/05 00:34:19;;;;;;;10.00;2.60;;;;;;;-3.36;59.99;99174.63;105014;1256;1002833;-75
2023/03/05 00:37:07;;;;;;;7.80;1.80;;;;;;;-3.30;60.10;99168.67;105297;1251;1003514;-75
2023/03/05 00:39:55;;;;;;;8.50;1.80;;;;;;;-3.23;60.13;99164.44;105796;1257;74286;-75
2023/03/05 00:42:43;;;;;;;7.60;2.20;;;;;;;-3.18;60.62;99156.60;106152;1254;59671;-75
2023/03/05 00:45:32;;;;;;;8.10;1.90;;;;;;;-3.14;60.91;99150.73;105038;1251;1003335;-75
2023/03/05 00:48:21;;;;;;;8.20;2.30;;;;;;;-3.13;61.45;99146.72;105724;1256;72363;-72
2023/03/05 00:51:09;;;;;;;7.10;1.80;;;;;;;-3.15;61.13;99146.80;106281;1251;69690;-74
2023/03/05 00:53:57;;;;;;;8.10;1.90;;;;;;;-3.17;61.49;99144.45;106329;1256;72392;-75
2023/03/05 00:56:46;;;;;;;7.60;2.30;;;;;;;-3.19;61.41;99135.84;105819;1256;59409;-74
2023/03/05 00:59:34;;;;;;;8.10;2.30;;;;;;;-3.22;61.90;99132.65;105183;1251;1002945;-72
2023/03/05 01:02:22;;;;;;;9.00;2.30;;;;;;;-3.26;62.19;99124.44;106044;1251;71027;-74
2023/03/05 01:05:13;;;;;;;6.70;1.80;;;;;;;-3.29;62.78;99119.17;105364;1251;1003376;-73
2023/03/05 01:08:02;;;;;;;7.90;2.00;;;;;;;-3.31;63.58;99117.38;106251;1255;73112;-73
2023/03/05 01:10:50;;;;;;;10.00;2.40;;;;;;;-3.35;64.27;99113.52;106106;1251;59283;-75
2023/03/05 01:13:40;;;;;;;8.20;2.10;;;;;;;-3.38;64.83;99112.92;106125;1254;60727;-74
2023/03/05 01:16:28;;;;;;;8.20;2.30;;;;;;;-3.41;65.31;99110.78;106421;1251;70941;-75
2023/03/05 01:19:16;;;;;;;6.60;2.00;;;;;;;-3.44;65.89;99105.34;105806;1251;67850;-76
2023/03/05 01:22:05;;;;;;;7.00;1.90;;;;;;;-3.48;66.07;99100.45;105080;1257;1002983;-76
2023/03/05 01:24:53;;;;;;;7.10;2.00;;;;;;;-3.51;65.33;99096.90;105843;1257;59273;-73
2023/03/05 01:27:42;;;;;;;6.60;1.70;;;;;;;-3.55;65.27;99094.63;105676;1251;62071;-75
2023/03/05 01:30:30;;;;;;;8.10;1.80;;;;;;;-3.58;65.05;99086.06;105140;1251;1003591;-75
2023/03/05 01:33:19;;;;;;;5.70;1.60;;;;;;;-3.61;64.95;99078.87;105700;1255;66252;-76
2023/03/05 01:36:14;;;;;;;8.60;1.80;;;;;;;-3.64;65.16;99069.11;105628;1256;72652;-75
2023/03/05 01:39:02;;;;;;;6.30;1.60;;;;;;;-3.67;66.23;99066.25;105917;1251;59823;-75
2023/03/05 01:41:50;;;;;;;6.40;1.60;;;;;;;-3.69;67.03;99059.41;105004;1251;1004208;-74
2023/03/05 01:45:11;;;;;;;7.90;2.00;;;;;;;-3.71;67.89;99058.94;105088;1251;1003626;-73
2023/03/05 01:47:59;;;;;;;10.10;1.80;;;;;;;-3.73;68.70;99051.73;105152;1254;1002955;-76
2023/03/05 01:50:48;;;;;;;8.70;1.70;;;;;;;-3.73;69.29;99047.24;105231;1256;1003089;-75
2023/03/05 01:53:37;;;;;;;7.10;1.60;;;;;;;-3.75;70.37;99047.45;105578;1254;59315;-76
2023/03/05 01:56:28;;;;;;;8.20;2.40;;;;;;;-3.74;71.03;99042.74;105650;1256;59697;-75
2023/03/05 01:59:17;;;;;;;7.00;1.60;;;;;;;-3.74;71.66;99045.52;105896;1251;72342;-74
2023/03/05 02:02:07;;;;;;;7.50;1.60;;;;;;;-3.73;72.25;99037.86;104975;1255;1003022;-76
2023/03/05 02:05:02;;;;;;;7.20;1.50;;;;;;;-3.74;72.11;99040.67;105681;1251;71161;-77
2023/03/05 02:07:51;;;;;;;6.90;1.30;;;;;;;-3.75;72.51;99041.05;105562;1257;59314;-75
2023/03/05 02:10:46;;;;;;;6.90;1.70;;;;;;;-3.76;72.99;99033.47;105908;1251;60359;-77
2023/03/05 02:13:39;;;;;;;5.60;1.50;;;;;;;-3.77;73.18;99031.42;105604;1255;70174;-75
2023/03/05 02:16:35;;;;;;;7.40;1.60;;;;;;;-3.77;73.83;99026.56;105012;1251;1015677;-74
2023/03/05 02:19:24;;;;;;;6.90;1.50;;;;;;;-3.78;73.78;99020.02;105930;1256;72324;-75
2023/03/05 02:22:18;;;;;;;6.30;1.40;;;;;;;-3.79;73.80;99018.48;105939;1251;59206;-75
2023/03/05 02:25:20;;;;;;;7.50;1.60;;;;;;;-3.80;74.17;99013.68;105620;1251;61681;-73
2023/03/05 02:28:29;;;;;;;5.50;1.40;;;;;;;-3.81;74.21;99011.96;104975;1253;1003766;-74
2023/03/05 02:31:23;;;;;;;6.40;1.50;;;;;;;-3.81;74.24;99012.15;105716;1256;66651;-75
2023/03/05 02:34:11;;;;;;;9.00;1.60;;;;;;;-3.80;74.66;99009.34;105698;1251;72088;-75
2023/03/05 02:36:59;;;;;;;6.40;1.30;;;;;;;-3.80;74.02;99006.02;105668;1257;59344;-76
2023/03/05 02:39:47;;;;;;;5.90;1.70;;;;;;;-3.80;74.57;99000.33;105765;1251;60074;-75
2023/03/05 02:42:35;;;;;;;6.10;1.40;;;;;;;-3.78;74.80;98996.76;106057;1251;72554;-75
2023/03/05 02:45:24;;;;;;;10.10;1.60;;;;;;;-3.73;74.54;98993.31;105796;1256;67820;-75
2023/03/05 02:48:12;;;;;;;5.30;1.30;;;;;;;-3.68;74.47;98991.73;105729;1251;72529;-76
2023/03/05 02:51:03;;;;;;;5.60;1.30;;;;;;;-3.62;74.38;98987.86;105780;1255;59277;-74
2023/03/05 02:53:52;;;;;;;6.30;1.70;;;;;;;-3.54;74.40;98980.48;105263;1253;1003024;-75
2023/03/05 02:56:42;;;;;;;5.70;1.40;;;;;;;-3.46;73.98;98973.73;106085;1253;72375;-76
2023/03/05 02:59:30;;;;;;;7.50;1.40;;;;;;;-3.39;73.53;98970.20;105675;1257;69198;-75
2023/03/05 03:02:19;;;;;;;5.80;1.40;;;;;;;-3.35;73.03;98970.73;105772;1256;74405;-75
2023/03/05 03:05:08;;;;;;;5.10;1.30;;;;;;;-3.31;73.17;98971.29;105702;1256;59254;-75
2023/03/05 03:07:56;;;;;;;6.90;1.50;;;;;;;-3.28;72.89;98970.31;105270;1251;1005612;-75
2023/03/05 03:10:44;;;;;;;6.80;1.70;;;;;;;-3.24;72.81;98968.94;105763;1253;71205;-75
2023/03/05 03:13:33;;;;;;;8.80;2.00;;;;;;;-3.17;72.56;98977.19;105740;1251;66393;-75
2023/03/05 03:16:21;;;;;;;13.50;2.30;;;;;;;-3.09;72.78;98984.30;105912;1255;71093;-75
2023/03/05 03:19:10;;;;;;;39.50;10.60;;;;;;;-3.00;72.70;98988.48;104665;1251;1003784;-73
2023/03/05 03:21:58;;;;;;;40.60;10.90;;;;;;;-2.91;72.89;98991.96;105162;1251;1003002;-75
2023/03/05 03:24:47;;;;;;;24.60;6.20;;;;;;;-2.84;73.09;98996.55;105755;1252;69891;-74
2023/03/05 03:27:36;;;;;;;19.20;5.20;;;;;;;-2.80;74.17;98996.38;105795;1251;65624;-74
2023/03/05 03:30:24;;;;;;;14.50;4.10;;;;;;;-2.77;76.05;98985.48;104943;1251;1002830;-74
2023/03/05 03:33:12;;;;;;;8.30;2.10;;;;;;;-2.78;76.72;98973.02;105777;1251;59244;-75
2023/03/05 03:36:02;;;;;;;8.50;2.30;;;;;;;-2.77;76.96;98966.75;105727;1251;61547;-75
2023/03/05 03:38:50;;;;;;;6.60;1.80;;;;;;;-2.77;77.05;98969.84;105890;1254;72167;-75
2023/03/05 03:41:45;;;;;;;8.20;1.90;;;;;;;-2.78;77.44;98967.81;105790;1251;68674;-76
2023/03/05 03:44:33;;;;;;;5.90;1.40;;;;;;;-2.81;77.67;98963.23;105680;1253;71502;-74
2023/03/05 03:47:21;;;;;;;7.40;1.60;;;;;;;-2.85;77.90;98957.88;105076;1255;1003346;-74
2023/03/05 03:50:10;;;;;;;6.70;1.60;;;;;;;-2.91;77.63;98953.59;105080;1253;1003523;-73
2023/03/05 03:52:58;;;;;;;7.20;1.30;;;;;;;-2.97;77.46;98952.06;105769;1255;72530;-73
2023/03/05 03:55:46;;;;;;;5.70;1.20;;;;;;;-3.02;77.91;98936.52;105719;1251;66393;-73
2023/03/05 03:58:35;;;;;;;5.50;1.40;;;;;;;-3.11;77.49;98944.64;105768;1251;72497;-74
2023/03/05 04:01:23;;;;;;;5.70;1.30;;;;;;;-3.18;77.54;98938.84;105785;1255;59240;-73
2023/03/05 04:04:12;;;;;;;8.90;1.50;;;;;;;-3.25;78.08;98939.12;105782;1256;59681;-73
2023/03/05 04:07:00;;;;;;;7.00;1.90;;;;;;;-3.29;78.29;98938.77;105374;1251;1003752;-75
2023/03/05 04:09:49;;;;;;;5.80;1.50;;;;;;;-3.31;78.15;98944.21;105991;1251;68317;-74
2023/03/05 04:12:37;;;;;;;7.40;1.70;;;;;;;-3.33;78.00;98942.04;105235;1255;1003624;-75
2023/03/05 04:15:25;;;;;;;7.00;1.80;;;;;;;-3.33;77.98;98943.44;105725;1251;59615;-74
2023/03/05 04:18:13;;;;;;;7.00;1.60;;;;;;;-3.34;77.95;98945.02;105869;1255;59845;-75
2023/03/05 04:21:02;;;;;;;9.30;1.90;;;;;;;-3.34;78.18;98935.46;106032;1252;73281;-75
2023/03/05 04:23:50;;;;;;;6.00;1.60;;;;;;;-3.32;77.64;98931.23;105230;1253;1003053;-74
2023/03/05 04:26:38;;;;;;;7.10;1.70;;;;;;;-3.31;77.05;98926.33;105785;1255;72779;-75
2023/03/05 04:29:26;;;;;;;7.50;1.60;;;;;;;-3.30;76.32;98918.85;105651;1251;59261;-74
2023/03/05 04:32:21;;;;;;;6.90;1.20;;;;;;;-3.30;75.88;98920.42;105771;1251;60206;-75
2023/03/05 04:35:10;;;;;;;5.70;1.30;;;;;;;-3.33;75.28;98915.68;106059;1252;70668;-75
2023/03/05 04:37:58;;;;;;;6.10;1.50;;;;;;;-3.37;75.14;98913.06;105661;1251;68231;-75
2023/03/05 04:40:46;;;;;;;6.00;1.00;;;;;;;-3.43;74.53;98912.77;105024;1251;1003458;-74
2023/03/05 04:43:35;;;;;;;5.20;1.20;;;;;;;-3.48;74.32;98908.77;104964;1251;1002949;-74
2023/03/05 04:46:23;;;;;;;5.40;1.20;;;;;;;-3.54;74.31;98905.75;105814;1251;59761;-75
2023/03/05 04:49:11;;;;;;;5.50;1.20;;;;;;;-3.61;74.15;98902.53;105711;1251;72707;-72
2023/03/05 04:51:59;;;;;;;5.00;1.10;;;;;;;-3.68;74.36;98900.88;105138;1251;1002912;-76
2023/03/05 04:54:47;;;;;;;4.30;0.90;;;;;;;-3.74;74.22;98892.25;105253;1251;1003395;-75
2023/03/05 04:57:36;;;;;;;5.90;1.20;;;;;;;-3.81;74.15;98896.17;105833;1251;59344;-73
2023/03/05 05:00:24;;;;;;;6.10;1.20;;;;;;;-3.86;74.34;98895.13;105796;1251;60781;-74
2023/03/05 05:03:13;;;;;;;6.70;1.10;;;;;;;-3.90;74.22;98896.53;105873;1255;72189;-76
2023/03/05 05:06:01;;;;;;;6.40;1.30;;;;;;;-3.96;74.41;98894.45;105814;1251;68476;-75
2023/03/05 05:08:50;;;;;;;6.00;1.40;;;;;;;-3.99;74.37;98894.06;105100;1255;1003492;-77
2023/03/05 05:11:39;;;;;;;5.20;1.30;;;;;;;-4.03;74.41;98893.69;105735;1251;59429;-75
2023/03/05 05:14:27;;;;;;;6.60;1.70;;;;;;;-4.05;74.46;98896.70;105819;1251;60450;-75
2023/03/05 05:17:15;;;;;;;6.40;1.50;;;;;;;-4.06;74.48;98893.29;105733;1251;70892;-74
2023/03/05 05:20:06;;;;;;;7.20;1.90;;;;;;;-4.06;74.50;98897.25;105818;1251;68353;-74
2023/03/05 05:22:54;;;;;;;7.90;1.70;;;;;;;-4.06;74.83;98892.24;104883;1253;1002994;-75
2023/03/05 05:25:42;;;;;;;6.30;1.50;;;;;;;-4.04;74.87;98893.92;105146;1251;1002917;-74
2023/03/05 05:28:31;;;;;;;8.00;1.80;;;;;;;-4.04;75.06;98888.00;105162;1252;1003022;-76
2023/03/05 05:31:20;;;;;;;6.40;1.60;;;;;;;-4.02;75.03;98889.86;105811;1251;72746;-75
2023/03/05 05:34:10;;;;;;;6.60;1.70;;;;;;;-4.03;74.69;98888.48;105931;1251;65882;-76
2023/03/05 05:36:58;;;;;;;5.10;1.10;;;;;;;-4.03;74.97;98886.42;106101;1251;72482;-75
2023/03/05 05:39:49;;;;;;;6.60;1.50;;;;;;;-4.04;74.93;98882.83;105094;1252;1002832;-75
2023/03/05 05:42:37;;;;;;;7.00;1.80;;;;;;;-4.06;74.78;98888.96;105843;1251;60038;-75
2023/03/05 05:45:25;;;;;;;7.10;1.30;;;;;;;-4.07;75.00;98883.96;105061;1251;1003092;-75
2023/03/05 05:48:13;;;;;;;7.10;1.50;;;;;;;-4.08;74.94;98885.92;106046;1255;68685;-74
2023/03/05 05:51:11;;;;;;;5.90;1.30;;;;;;;-4.10;75.05;98883.20;105910;1255;72423;-75
2023/03/05 05:54:00;;;;;;;7.00;1.40;;;;;;;-4.12;75.53;98885.86;105937;1257;59277;-74
2023/03/05 05:56:48;;;;;;;7.40;1.40;;;;;;;-4.13;75.92;98886.06;106219;1255;61155;-74
2023/03/05 05:59:37;;;;;;;5.60;1.30;;;;;;;-4.13;75.63;98883.64;105820;1255;70817;-74
2023/03/05 06:02:26;;;;;;;6.00;1.40;;;;;;;-4.17;75.66;98872.18;106053;1251;66400;-75
2023/03/05 06:05:14;;;;;;;5.40;1.30;;;;;;;-4.12;75.49;98880.14;105979;1251;74137;-75
2023/03/05 06:08:03;;;;;;;9.70;2.40;;;;;;;-4.11;75.52;98874.04;105326;1255;1003128;-74
2023/03/05 06:10:55;;;;;;;7.40;1.90;;;;;;;-4.08;75.25;98873.45;105093;1251;1003746;-76
2023/03/05 06:13:43;;;;;;;7.40;2.20;;;;;;;-4.05;74.78;98869.67;105770;1253;72548;-74
2023/03/05 06:16:32;;;;;;;7.50;1.80;;;;;;;-4.01;74.79;98870.73;105873;1254;67624;-72
2023/03/05 06:19:20;;;;;;;7.90;1.60;;;;;;;-3.94;74.06;98870.49;105427;1256;1003640;-76
2023/03/05 06:22:09;;;;;;;9.70;2.10;;;;;;;-3.86;73.98;98871.40;106130;1251;59330;-74
2023/03/05 06:24:57;;;;;;;7.50;1.90;;;;;;;-3.77;72.94;98870.36;106060;1255;60136;-76
2023/03/05 06:27:45;;;;;;;7.30;1.90;;;;;;;-3.69;72.79;98869.90;105895;1252;72070;-76
2023/03/05 06:30:33;;;;;;;8.20;2.10;;;;;;;-3.60;72.45;98866.79;105871;1251;65730;-75
2023/03/05 06:33:22;;;;;;;9.90;2.20;;;;;;;-3.55;72.01;98865.52;105804;1253;73452;-76
2023/03/05 06:36:15;;;;;;;8.00;2.40;;;;;;;-3.50;71.42;98870.87;105888;1255;59266;-75
2023/03/05 06:39:04;;;;;;;10.50;2.70;;;;;;;-3.44;71.07;98864.77;105834;1251;59818;-75
2023/03/05 06:41:52;;;;;;;9.00;1.90;;;;;;;-3.37;70.33;98866.94;105838;1251;72464;-75
2023/03/05 06:44:40;;;;;;;10.40;2.00;;;;;;;-3.30;70.04;98867.14;105922;1256;67595;-74
2023/03/05 06:47:29;;;;;;;10.20;2.30;;;;;;;-3.15;68.99;98866.89;105956;1251;72637;-75
2023/03/05 06:50:17;;;;;;;9.50;2.60;;;;;;;-2.95;67.80;98865.55;105949;1252;59346;-76
2023/03/05 06:53:05;;;;;;;8.50;2.10;;;;;;;-2.79;66.09;98861.79;105772;1251;60459;-77
2023/03/05 06:55:53;;;;;;;9.00;1.90;;;;;;;-2.70;65.45;98855.52;105894;1251;71544;-74
2023/03/05 06:58:47;;;;;;;6.50;1.80;;;;;;;-2.62;64.75;98854.98;105184;1253;1002970;-75
2023/03/05 07:01:36;;;;;;;5.90;1.30;;;;;;;-2.49;63.34;98852.33;105243;1251;1003192;-74
2023/03/05 07:04:25;;;;;;;8.20;1.70;;;;;;;-2.28;62.83;98850.21;105937;1251;59335;-78
2023/03/05 07:07:13;;;;;;;7.40;2.10;;;;;;;-2.05;61.72;98847.60;106137;1251;60099;-77
2023/03/05 07:10:03;;;;;;;6.10;1.70;;;;;;;-1.58;60.83;98850.33;105807;1255;72303;-75
2023/03/05 07:12:51;;;;;;;8.10;1.80;;;;;;;-0.00;57.91;98845.38;105805;1256;69457;-76
2023/03/05 07:15:40;;;;;;;7.20;1.90;;;;;;;1.31;53.85;98842.39;105927;1251;72445;-73
2023/03/05 07:18:29;;;;;;;7.90;2.00;;;;;;;2.92;51.14;98839.58;105887;1255;59552;-76
2023/03/05 07:21:22;;;;;;;7.10;1.80;;;;;;;4.39;45.70;98834.09;105830;1255;60074;-75
2023/03/05 07:24:11;;;;;;;7.30;2.00;;;;;;;6.31;42.20;98824.33;105910;1253;71594;-75
2023/03/05 07:26:59;;;;;;;5.50;1.60;;;;;;;7.83;38.01;98817.92;106078;1257;66905;-74
2023/03/05 07:29:47;;;;;;;6.50;1.90;;;;;;;9.23;35.71;98812.55;105815;1256;72427;-77
2023/03/05 07:32:36;;;;;;;9.30;2.00;;;;;;;10.60;33.54;98805.26;105905;1252;59347;-77
2023/03/05 07:35:24;;;;;;;8.00;2.10;;;;;;;11.28;30.38;98800.14;105533;1256;59248;-74
2023/03/05 07:38:12;;;;;;;6.30;2.00;;;;;;;11.82;28.95;98794.38;105781;1256;72963;-76
2023/03/05 07:41:07;;;;;;;8.40;2.20;;;;;;;12.40;27.23;98801.17;106092;1253;67955;-76
2023/03/05 07:43:56;;;;;;;8.20;2.70;;;;;;;12.87;26.60;98792.81;105868;1256;72717;-75
2023/03/05 07:46:44;;;;;;;9.30;2.70;;;;;;;13.52;25.96;98785.44;105864;1251;59360;-75
2023/03/05 07:49:34;;;;;;;7.70;2.00;;;;;;;14.15;24.81;98783.66;105767;1251;60189;-73
2023/03/05 07:52:22;;;;;;;7.30;1.90;;;;;;;14.63;24.11;98780.75;105946;1256;72142;-77
2023/03/05 07:55:11;;;;;;;7.80;1.80;;;;;;;14.87;23.04;98777.60;106163;1251;68970;-73
2023/03/05 07:58:00;;;;;;;7.30;2.30;;;;;;;15.05;22.27;98775.44;105916;1256;73276;-75
2023/03/05 08:00:48;;;;;;;9.00;2.10;;;;;;;15.37;21.94;98777.03;106036;1251;59567;-75
2023/03/05 08:03:36;;;;;;;6.90;1.50;;;;;;;15.75;21.42;98774.48;106005;1255;59357;-75
2023/03/05 08:06:24;;;;;;;5.20;1.30;;;;;;;15.55;20.59;98775.80;105851;1255;71492;-74
2023/03/05 08:09:13;;;;;;;5.80;1.70;;;;;;;15.51;20.89;98777.84;105882;1253;68216;-76
2023/03/05 08:12:03;;;;;;;6.40;1.90;;;;;;;15.83;20.97;98775.11;105891;1252;71339;-74
2023/03/05 08:14:51;;;;;;;6.70;1.40;;;;;;;16.12;20.48;98777.12;105745;1255;59478;-72
2023/03/05 08:17:39;;;;;;;5.70;1.50;;;;;;;16.38;20.30;98772.77;106085;1252;59280;-73
2023/03/05 08:20:27;;;;;;;6.40;1.50;;;;;;;16.65;19.67;98774.73;106071;1253;72210;-73
2023/03/05 08:23:16;;;;;;;6.30;1.60;;;;;;;16.67;19.64;98772.27;105774;1253;67579;-72
2023/03/05 08:26:21;;;;;;;7.90;2.10;;;;;;;16.95;19.60;98776.76;105725;1257;73273;-74
2023/03/05 08:29:10;;;;;;;6.80;1.90;;;;;;;17.09;19.33;98768.08;105612;1253;59713;-73
2023/03/05 08:31:58;;;;;;;6.70;1.60;;;;;;;17.42;19.13;98766.94;105891;1253;59236;-74
2023/03/05 08:34:46;;;;;;;5.60;1.30;;;;;;;17.17;18.55;98766.89;105806;1257;72097;-74
2023/03/05 08:37:35;;;;;;;6.70;1.60;;;;;;;16.10;19.61;98762.84;105634;1253;69411;-72
2023/03/05 08:40:23;;;;;;;6.20;1.50;;;;;;;16.09;19.60;98765.16;105740;1258;71129;-73
2023/03/05 08:43:12;;;;;;;5.90;1.40;;;;;;;14.15;20.88;98767.24;105801;1253;59316;-73
2023/03/05 08:46:02;;;;;;;6.40;1.60;;;;;;;12.67;22.39;98769.55;106024;1257;59290;-72
2023/03/05 08:48:50;;;;;;;6.70;1.60;;;;;;;11.16;23.85;98776.33;105771;1257;70802;-75
2023/03/05 08:51:40;;;;;;;5.60;1.40;;;;;;;9.67;25.32;98779.35;106135;1253;68118;-73
2023/03/05 08:54:28;;;;;;;5.30;1.20;;;;;;;8.68;26.74;98786.00;105760;1253;71429;-74
2023/03/05 08:57:17;;;;;;;5.40;1.10;;;;;;;7.62;27.71;98788.84;105810;1253;59315;-73
2023/03/05 09:00:11;;;;;;;6.50;1.70;;;;;;;6.83;28.19;98785.92;105943;1257;59258;-75
2023/03/05 09:02:59;;;;;;;8.70;1.80;;;;;;;6.27;28.99;98802.77;105729;1257;71080;-73
2023/03/05 09:05:50;;;;;;;5.80;1.30;;;;;;;6.31;29.17;98796.99;105937;1257;69214;-78
2023/03/05 09:08:39;;;;;;;7.10;1.20;;;;;;;6.45;29.42;98793.20;105961;1255;72980;-77
2023/03/05 09:11:27;;;;;;;5.50;1.30;;;;;;;6.38;29.21;98788.36;106171;1253;59357;-75
2023/03/05 09:14:15;;;;;;;5.70;1.40;;;;;;;7.08;29.03;98785.61;105987;1255;59702;-76
2023/03/05 09:17:04;;;;;;;6.40;1.50;;;;;;;7.70;28.13;98785.15;105872;1255;72320;-75
2023/03/05 09:19:55;;;;;;;5.10;1.20;;;;;;;9.38;26.20;98781.70;105884;1255;66953;-77
2023/03/05 09:22:43;;;;;;;7.50;1.40;;;;;;;9.62;24.85;98772.42;105836;1257;72626;-75
2023/03/05 09:25:31;;;;;;;6.00;1.30;;;;;;;10.47;24.21;98776.06;105852;1252;59305;-77
2023/03/05 09:28:20;;;;;;;7.00;1.70;;;;;;;11.36;23.14;98772.56;106231;1253;59349;-77
2023/03/05 09:31:10;;;;;;;5.00;1.30;;;;;;;12.34;22.45;98770.84;105878;1255;70979;-76
2023/03/05 09:33:58;;;;;;;5.50;1.30;;;;;;;13.28;20.96;98766.34;105777;1256;67847;-72
2023/03/05 09:36:47;;;;;;;5.10;1.20;;;;;;;13.50;20.76;98769.08;106140;1254;71387;-75
2023/03/05 09:39:36;;;;;;;6.00;1.40;;;;;;;14.29;20.55;98769.45;105870;1255;59360;-74
2023/03/05 09:42:31;;;;;;;6.70;1.50;;;;;;;14.55;19.76;98769.86;105940;1256;59298;-76
2023/03/05 09:46:00;;;;;;;6.50;1.50;;;;;;;14.18;20.14;98773.14;106016;1255;70276;-76
2023/03/05 09:49:12;;;;;;;6.90;1.90;;;;;;;13.70;20.76;98772.67;105902;1253;69224;-76
2023/03/05 09:52:30;;;;;;;6.30;1.60;;;;;;;12.84;21.36;98780.52;106121;1255;72916;-72
2023/03/05 09:55:43;;;;;;;7.00;1.40;;;;;;;12.53;22.07;98772.44;106077;1253;59510;-77
2023/03/05 09:58:48;;;;;;;6.30;1.60;;;;;;;12.32;22.56;98776.96;105873;1253;60090;-77
2023/03/05 10:01:43;;;;;;;4.90;1.20;;;;;;;13.29;22.35;98767.70;105947;1253;73806;-75
2023/03/05 10:04:56;;;;;;;4.90;1.00;;;;;;;13.86;21.93;98759.23;105885;1256;67593;-76
2023/03/05 10:07:54;;;;;;;5.50;1.10;;;;;;;14.25;21.12;98762.20;106056;1258;72518;-79
2023/03/05 10:10:52;;;;;;;4.30;0.90;;;;;;;15.06;20.06;98757.52;105985;1254;59212;-74
2023/03/05 10:13:44;;;;;;;5.90;1.30;;;;;;;14.61;20.14;98755.63;106195;1254;61070;-74
2023/03/05 10:17:04;;;;;;;5.60;1.10;;;;;;;15.10;19.72;98746.20;105864;1253;72091;-77
2023/03/05 10:20:16;;;;;;;4.60;1.00;;;;;;;16.29;19.26;98745.95;106277;1256;67665;-78
2023/03/05 10:23:07;;;;;;;5.20;0.90;;;;;;;17.17;17.72;98738.77;105899;1255;71048;-75
2023/03/05 10:26:25;;;;;;;5.40;1.00;;;;;;;17.53;17.29;98738.27;105824;1251;59242;-73
2023/03/05 10:29:41;;;;;;;5.20;1.10;;;;;;;18.18;16.78;98736.77;105985;1253;60160;-75
2023/03/05 10:33:07;;;;;;;6.10;1.20;;;;;;;18.29;16.74;98737.52;105866;1253;72010;-75
2023/03/05 10:36:01;;;;;;;5.80;1.20;;;;;;;19.45;15.86;98730.39;106119;1255;65310;-77
2023/03/05 10:39:03;;;;;;;5.40;1.10;;;;;;;19.84;15.19;98736.36;105817;1253;74417;-76
2023/03/05 10:42:19;;;;;;;6.00;1.00;;;;;;;18.72;15.62;98737.80;106180;1252;59607;-75
2023/03/05 10:45:27;;;;;;;4.50;0.90;;;;;;;18.17;16.19;98741.82;106197;1255;60144;-75
2023/03/05 10:48:39;;;;;;;5.90;1.20;;;;;;;16.33;17.50;98739.98;106262;1253;72025;-75
2023/03/05 10:51:48;;;;;;;7.30;1.80;;;;;;;15.20;18.94;98736.64;105903;1253;66795;-75
2023/03/05 10:54:40;;;;;;;7.70;1.70;;;;;;;15.31;19.16;98735.91;105991;1253;72704;-73
2023/03/05 10:57:31;;;;;;;5.60;1.20;;;;;;;16.18;18.79;98735.69;105849;1253;59314;-75
2023/03/05 11:00:25;;;;;;;5.60;1.20;;;;;;;15.66;18.81;98742.12;105979;1253;61012;-75
2023/03/05 11:03:13;;;;;;;6.10;1.60;;;;;;;13.88;20.22;98744.44;106046;1256;72024;-74
2023/03/05 11:06:02;;;;;;;4.80;1.20;;;;;;;13.26;21.03;98747.64;105873;1255;67696;-75
2023/03/05 11:08:50;;;;;;;6.90;1.60;;;;;;;13.55;20.98;98741.02;105935;1255;72222;-77
2023/03/05 11:11:38;;;;;;;7.00;2.30;;;;;;;14.25;20.66;98730.23;105894;1253;59286;-75
2023/03/05 11:14:30;;;;;;;7.40;2.10;;;;;;;15.20;20.01;98728.84;105820;1253;60142;-78
2023/03/05 11:17:31;;;;;;;7.80;2.10;;;;;;;15.17;19.72;98724.50;106079;1253;71919;-76
2023/03/05 11:20:26;;;;;;;8.40;2.30;;;;;;;13.95;21.02;98729.70;105890;1252;68306;-75
2023/03/05 11:23:23;;;;;;;5.80;1.40;;;;;;;12.41;22.46;98735.42;106089;1254;72111;-75
2023/03/05 11:26:11;;;;;;;5.60;1.50;;;;;;;10.97;24.35;98735.29;105892;1255;59376;-75
2023/03/05 11:29:03;;;;;;;6.80;1.70;;;;;;;10.16;25.30;98739.35;105939;1251;60152;-76
2023/03/05 11:31:53;;;;;;;6.40;1.50;;;;;;;9.36;26.56;98739.96;105936;1256;71327;-75
2023/03/05 11:34:41;;;;;;;6.60;1.10;;;;;;;8.67;27.56;98738.92;105834;1253;66647;-77
2023/03/05 11:37:32;;;;;;;5.40;1.50;;;;;;;7.74;28.55;98741.61;105845;1253;71308;-74
2023/03/05 11:40:24;;;;;;;5.50;1.30;;;;;;;6.98;29.87;98736.73;105927;1255;59498;-76
2023/03/05 11:43:19;;;;;;;7.20;2.10;;;;;;;7.67;29.74;98735.33;106080;1252;60360;-75
2023/03/05 11:46:10;;;;;;;6.40;1.50;;;;;;;8.93;28.05;98725.52;103726;1256;1016022;-75
2023/03/05 11:48:59;;;;;;;7.90;1.90;;;;;;;9.66;25.97;98719.25;106062;1257;67879;-74
2023/03/05 11:51:50;;;;;;;5.60;1.50;;;;;;;10.34;25.31;98713.50;105967;1253;74073;-74
2023/03/05 11:55:02;;;;;;;5.50;1.50;;;;;;;11.00;25.07;98711.80;106054;1255;59231;-75
2023/03/05 11:58:06;;;;;;;6.80;1.70;;;;;;;11.31;24.89;98705.61;105851;1252;61620;-74
2023/03/05 12:00:55;;;;;;;6.90;1.50;;;;;;;11.67;24.67;98710.44;105837;1256;70418;-74
2023/03/05 12:03:44;;;;;;;5.60;1.10;;;;;;;11.88;23.50;98712.16;106062;1251;69496;-75
2023/03/05 12:07:03;;;;;;;4.90;1.00;;;;;;;12.37;23.14;98702.33;105926;1257;71881;-73
2023/03/05 12:10:27;;;;;;;6.20;1.50;;;;;;;12.33;23.28;98704.79;103127;1293;602549;-75
2023/03/05 12:13:21;;;;;;;7.50;1.20;;;;;;;12.08;23.53;98698.78;105493;1259;59242;-75
2023/03/05 12:16:37;;;;;;;6.60;1.20;;;;;;;11.97;24.06;98701.36;105270;1264;60687;-75
2023/03/05 12:19:55;;;;;;;6.60;1.40;;;;;;;12.08;24.00;98696.98;105335;1259;70325;-74
2023/03/05 12:22:43;;;;;;;4.90;1.10;;;;;;;12.04;23.72;98701.34;105229;1256;193864;-75
2023/03/05 12:25:51;;;;;;;6.10;1.30;;;;;;;11.82;24.22;98698.80;105511;1256;73077;-75
2023/03/05 12:28:40;;;;;;;7.50;1.40;;;;;;;11.61;24.65;98699.29;105817;1256;59181;-75
2023/03/05 12:31:37;;;;;;;6.50;1.40;;;;;;;11.56;24.92;98697.89;106007;1256;61686;-74
2023/03/05 12:34:39;;;;;;;5.60;1.60;;;;;;;11.30;24.76;98691.46;105645;1257;72138;-75
2023/03/05 12:37:27;;;;;;;6.10;1.50;;;;;;;10.89;25.22;98691.38;105594;1261;69275;-74
2023/03/05 12:40:33;;;;;;;6.90;1.70;;;;;;;10.37;25.99;98684.61;105358;1261;74365;-74
2023/03/05 12:43:30;;;;;;;6.00;1.30;;;;;;;9.74;26.28;98690.00;105926;1256;59315;-74
2023/03/05 12:46:31;;;;;;;5.40;1.40;;;;;;;8.83;26.84;98688.24;105716;1256;60755;-74
2023/03/05 12:49:22;;;;;;;5.70;1.60;;;;;;;8.41;28.03;98694.35;106249;1257;71588;-75
2023/03/05 12:52:23;;;;;;;4.60;1.30;;;;;;;7.91;27.78;98689.79;105704;1256;68637;-77
2023/03/05 12:55:34;;;;;;;6.70;1.50;;;;;;;7.34;28.21;98686.08;105719;1256;73208;-74
2023/03/05 12:58:44;;;;;;;5.50;1.30;;;;;;;6.65;28.37;98693.63;105559;1262;59224;-74
2023/03/05 13:01:47;;;;;;;4.90;1.40;;;;;;;6.15;29.30;98691.73;105833;1257;59264;-74
2023/03/05 13:04:40;;;;;;;7.60;1.30;;;;;;;5.91;29.78;98692.23;106027;1256;71565;-74
2023/03/05 13:07:29;;;;;;;5.60;1.90;;;;;;;5.52;28.79;98695.32;105657;1262;67871;-74
2023/03/05 13:10:29;;;;;;;4.60;1.30;;;;;;;5.06;28.81;98684.39;105537;1256;74245;-73
2023/03/05 13:13:15;;;;;;;6.40;1.20;;;;;;;4.84;29.89;98692.05;105624;1254;59214;-75
2023/03/05 13:16:04;;;;;;;5.30;1.40;;;;;;;4.63;30.54;98692.56;105645;1256;60175;-73
2023/03/05 13:18:53;;;;;;;5.30;1.60;;;;;;;4.46;31.13;98691.71;105962;1258;72850;-74